Walnut Hill, Florida
Current Conditions -  °F | °C
As of 12:56 PM on Sunday 23 Nov 2014 (Local Time) from KNSE Reporting Station
Light Rain Light Rain  
Wind Chill: 65°   Ceiling: 8500
Heat Index: 65°   Visibility: 10mi
Dew Point: 60°   Wind: 9mph
Humidity: 84%   Direction: 240°WSW
Pressure: 29.7"   Gusts: NA
Location:  30.8697°N, 87.4663°W
Report Text: KNSE 231856Z AUTO 24008KT 10SM -RA FEW065 OVC085 18/16 A2970 RMK AO2 PK WND 27027/1758 RAB1759 PRESFR SLP044 P0000 T01830156 $
Loading
Personal Weather Stations






























Interactive Weather Map New forecast layout! Learn more

10-Day Weather Forecast

Advertisements
Track Severe Weather on mobile